Time;durP1;ratioP1;P1;durP2;ratioP2;P2;SDS_P1;SDS_P2;PMS_P1;PMS_P2;Temp;Humidity;BMP_temperature;BMP_pressure;BME280_temperature;BME280_humidity;BME280_pressure;Samples;Min_cycle;Max_cycle;Signal;HPM_P1;HPM_P2
2021/12/04 00:00:47;;;;;;;8.25;6.40;;;;;;;-1.92;100.00;91893.03;2082260;28;20508;-87
2021/12/04 00:01:50;;;;;;;7.40;6.60;;;;;;;-1.93;100.00;91894.13;2075983;28;20468;-89
2021/12/04 00:02:56;;;;;;;8.63;6.60;;;;;;;-1.94;100.00;91897.84;2073986;28;20029;-89
2021/12/04 00:04:09;;;;;;;9.38;7.03;;;;;;;-1.95;100.00;91896.38;2082762;28;20064;-88
2021/12/04 00:05:13;;;;;;;7.90;6.68;;;;;;;-1.97;100.00;91896.00;2083801;28;20097;-87
2021/12/04 00:06:40;;;;;;;10.90;6.93;;;;;;;-2.00;100.00;91886.25;2075001;28;20180;-89
2021/12/04 00:07:41;;;;;;;8.55;6.22;;;;;;;-2.11;100.00;91892.19;2089229;28;20024;-87
2021/12/04 00:08:47;;;;;;;12.32;7.20;;;;;;;-1.87;100.00;91890.03;2082274;28;20159;-88
2021/12/04 00:09:51;;;;;;;9.43;7.22;;;;;;;-1.75;100.00;91878.50;2090120;28;20104;-87
2021/12/04 00:11:58;;;;;;;10.27;7.75;;;;;;;-1.92;100.00;91872.81;2088209;28;20029;-89
2021/12/04 00:12:49;;;;;;;8.13;6.05;;;;;;;-1.79;100.00;91876.63;2082531;28;20045;-88
2021/12/04 00:13:52;;;;;;;;;;;;;;;-1.82;100.00;91871.34;2087741;28;20499;-89
2021/12/04 00:15:35;;;;;;;8.57;5.65;;;;;;;-1.82;100.00;91869.50;2088429;28;19912;-88
2021/12/04 00:16:41;;;;;;;10.23;6.22;;;;;;;-1.75;100.00;91862.78;2083207;28;20025;-89
2021/12/04 00:17:43;;;;;;;9.20;6.72;;;;;;;-1.88;100.00;91867.59;2075145;28;20038;-88
2021/12/04 00:18:46;;;;;;;9.27;6.78;;;;;;;-1.90;100.00;91865.34;2073949;28;20077;-89
2021/12/04 00:20:18;;;;;;;7.95;7.15;;;;;;;-1.82;100.00;91860.88;2086450;28;20033;-87
2021/12/04 00:21:19;;;;;;;8.70;5.90;;;;;;;-1.72;100.00;91857.53;2090056;28;20123;-89
2021/12/04 00:22:21;;;;;;;7.70;6.38;;;;;;;-1.75;100.00;91849.69;2091438;28;20025;-89
2021/12/04 00:23:21;;;;;;;8.10;7.15;;;;;;;-1.66;100.00;91856.09;2096071;28;20020;-88
2021/12/04 00:24:23;;;;;;;8.50;7.07;;;;;;;-1.67;100.00;91848.56;2088146;28;20178;-87
2021/12/04 00:25:24;;;;;;;8.27;6.70;;;;;;;-1.60;100.00;91851.22;2086062;28;20028;-87
2021/12/04 00:26:25;;;;;;;8.52;6.90;;;;;;;-1.71;100.00;91850.44;2088108;28;20021;-87
2021/12/04 00:27:26;;;;;;;11.18;6.80;;;;;;;-1.53;100.00;91840.78;2089836;28;20024;-89
2021/12/04 00:28:27;;;;;;;7.85;6.68;;;;;;;-1.66;100.00;91839.63;2098019;28;20036;-89
2021/12/04 00:29:49;;;;;;;9.20;7.43;;;;;;;-1.93;100.00;91837.28;2085596;28;20560;-89
2021/12/04 00:30:50;;;;;;;10.35;7.05;;;;;;;-1.98;100.00;91842.84;2090798;28;20333;-89
2021/12/04 00:32:02;;;;;;;8.70;7.30;;;;;;;-2.05;100.00;91840.97;2093447;28;20135;-87
2021/12/04 00:33:10;;;;;;;8.90;7.20;;;;;;;-1.97;100.00;91836.53;2101480;28;20043;-88
2021/12/04 00:34:11;;;;;;;9.23;7.18;;;;;;;-1.90;100.00;91836.53;2087332;28;20048;-88
2021/12/04 00:36:51;;;;;;;9.13;6.75;;;;;;;-1.76;100.00;91833.22;2094291;28;20444;-87
2021/12/04 00:50:08;;;;;;;6.25;5.18;;;;;;;-1.66;100.00;91814.16;2096116;28;20107;-88
2021/12/04 00:51:55;;;;;;;6.75;6.05;;;;;;;-1.55;100.00;91817.56;2091571;28;20067;-89
2021/12/04 00:52:57;;;;;;;5.75;5.05;;;;;;;-1.58;100.00;91807.06;2104802;28;20118;-88
2021/12/04 00:53:57;;;;;;;6.50;5.43;;;;;;;-1.76;100.00;91807.00;2091515;28;20021;-87
2021/12/04 00:54:58;;;;;;;6.45;5.68;;;;;;;-1.62;100.00;91814.94;2089981;28;20017;-89
2021/12/04 00:56:18;;;;;;;6.22;5.45;;;;;;;-1.78;100.00;91811.88;2098140;28;20514;-89
2021/12/04 00:57:19;;;;;;;7.18;5.82;;;;;;;-1.68;100.00;91816.41;2085463;28;20072;-86
2021/12/04 00:58:20;;;;;;;7.25;5.50;;;;;;;-1.66;100.00;91803.69;2090055;28;20047;-88
2021/12/04 00:59:22;;;;;;;6.95;5.40;;;;;;;-1.58;100.00;91809.69;2097890;28;20024;-88
2021/12/04 01:00:23;;;;;;;5.72;5.13;;;;;;;-1.60;100.00;91804.06;2073562;28;20033;-88
2021/12/04 01:01:24;;;;;;;6.57;4.68;;;;;;;-1.50;100.00;91803.34;2083763;28;20022;-88
2021/12/04 01:02:29;;;;;;;6.80;5.18;;;;;;;-1.54;100.00;91802.56;2104252;28;20058;-88
2021/12/04 01:03:35;;;;;;;7.32;5.00;;;;;;;-1.41;100.00;91800.34;2077500;28;20041;-88
2021/12/04 01:04:36;;;;;;;6.53;5.32;;;;;;;-1.53;100.00;91796.22;2084828;28;20021;-87
2021/12/04 01:05:39;;;;;;;5.97;5.38;;;;;;;-1.60;100.00;91793.59;2081711;28;20076;-88
2021/12/04 01:06:42;;;;;;;5.85;5.25;;;;;;;-1.63;100.00;91796.94;2077919;28;20026;-88
2021/12/04 01:07:46;;;;;;;5.75;5.13;;;;;;;-1.64;100.00;91790.97;2086167;28;20021;-88
2021/12/04 01:08:53;;;;;;;5.82;5.10;;;;;;;-1.31;100.00;91791.78;2090137;28;20031;-88
2021/12/04 01:09:54;;;;;;;6.32;4.55;;;;;;;-1.47;100.00;91797.34;2089844;28;20021;-90
2021/12/04 01:11:04;;;;;;;5.97;4.70;;;;;;;-1.50;100.00;91789.50;2087746;28;20467;-86
2021/12/04 01:12:05;;;;;;;5.13;4.55;;;;;;;-1.40;100.00;91788.78;2097720;28;20042;-87
2021/12/04 01:13:11;;;;;;;4.93;4.53;;;;;;;-1.54;100.00;91784.25;2089836;28;20033;-86
2021/12/04 01:14:14;;;;;;;6.88;4.65;;;;;;;-1.49;100.00;91785.75;2089926;28;20029;-88
2021/12/04 01:15:53;;;;;;;5.22;4.10;;;;;;;-1.53;100.00;91778.66;2074175;28;20041;-87
2021/12/04 01:16:40;;;;;;;5.70;4.22;;;;;;;-1.46;100.00;91777.13;2084873;28;20804;-86
2021/12/04 01:17:43;;;;;;;4.22;3.83;;;;;;;-1.50;100.00;91781.63;2093874;28;20039;-88
2021/12/04 01:18:44;;;;;;;9.57;4.78;;;;;;;-1.40;100.00;91773.78;2097958;28;20233;-88
2021/12/04 01:19:57;;;;;;;5.70;4.20;;;;;;;-1.28;100.00;91780.53;2074664;28;20052;-88
2021/12/04 01:20:58;;;;;;;4.50;4.10;;;;;;;-1.32;100.00;91772.69;2083991;28;20112;-89
2021/12/04 01:22:00;;;;;;;5.65;4.07;;;;;;;-1.41;100.00;91772.28;2086675;28;20119;-88
2021/12/04 01:23:01;;;;;;;6.78;3.42;;;;;;;-1.32;100.00;91777.16;2081436;28;20049;-89
2021/12/04 01:24:03;;;;;;;5.25;4.35;;;;;;;-1.31;100.00;91774.16;2073380;28;20369;-87
2021/12/04 01:25:04;;;;;;;4.93;4.30;;;;;;;-1.40;100.00;91773.06;2076668;28;20405;-87
2021/12/04 01:26:05;;;;;;;5.00;4.40;;;;;;;-1.47;100.00;91773.03;2097938;28;20024;-87
2021/12/04 01:27:08;;;;;;;4.53;4.13;;;;;;;-1.44;100.00;91764.44;2089482;28;20048;-88
2021/12/04 01:28:09;;;;;;;5.03;4.35;;;;;;;-1.46;100.00;91764.78;2081582;28;20583;-89
2021/12/04 01:29:10;;;;;;;6.40;4.40;;;;;;;-1.49;100.00;91760.31;2073335;28;20026;-86
2021/12/04 01:30:13;;;;;;;6.28;4.40;;;;;;;-1.45;100.00;91760.28;2097913;28;20108;-86
2021/12/04 01:31:14;;;;;;;5.05;4.55;;;;;;;-1.55;100.00;91754.66;2097481;28;20103;-87
2021/12/04 01:32:32;;;;;;;4.57;4.10;;;;;;;-1.46;100.00;91756.19;2073145;28;20030;-88
2021/12/04 01:33:53;;;;;;;5.07;4.28;;;;;;;-1.47;100.00;91752.81;2069723;28;20034;-89
2021/12/04 01:35:11;;;;;;;5.03;4.53;;;;;;;-1.49;100.00;91755.06;2076570;28;20039;-88
2021/12/04 01:36:12;;;;;;;6.05;4.72;;;;;;;-1.54;100.00;91752.78;2078025;28;20124;-87
2021/12/04 01:37:13;;;;;;;5.57;4.18;;;;;;;-1.49;100.00;91749.06;2089323;28;20067;-87
2021/12/04 01:38:14;;;;;;;5.68;4.80;;;;;;;-1.43;100.00;91745.72;2089756;28;20054;-89
2021/12/04 01:39:16;;;;;;;5.63;4.18;;;;;;;-1.36;100.00;91753.59;2082145;28;20079;-86
2021/12/04 01:40:21;;;;;;;4.80;4.32;;;;;;;-1.28;100.00;91741.22;2082477;28;20026;-88
2021/12/04 01:41:26;;;;;;;5.78;4.82;;;;;;;-1.32;100.00;91743.06;2082219;28;20022;-85
2021/12/04 01:42:28;;;;;;;7.63;4.45;;;;;;;-1.49;100.00;91741.97;2080945;28;20049;-86
2021/12/04 01:43:29;;;;;;;5.85;4.50;;;;;;;-1.50;100.00;91739.72;2075042;28;20029;-86
2021/12/04 01:44:30;;;;;;;6.40;4.65;;;;;;;-1.47;100.00;91742.34;2073198;28;20021;-87
2021/12/04 01:45:31;;;;;;;5.95;5.10;;;;;;;-1.45;100.00;91742.69;2068049;28;20116;-88
2021/12/04 01:46:34;;;;;;;4.68;4.03;;;;;;;-1.45;100.00;91736.72;2065163;28;20029;-86
2021/12/04 01:47:35;;;;;;;5.65;5.03;;;;;;;-1.45;100.00;91729.59;2076802;28;20116;-88
2021/12/04 01:48:38;;;;;;;5.38;4.35;;;;;;;-1.35;100.00;91728.13;2085252;28;20025;-88
2021/12/04 01:49:56;;;;;;;5.22;4.72;;;;;;;-1.48;100.00;91727.75;2084863;28;20032;-89
2021/12/04 01:50:57;;;;;;;4.75;3.92;;;;;;;-1.52;100.00;91725.13;2076136;28;20141;-88
2021/12/04 01:51:58;;;;;;;4.63;4.22;;;;;;;-1.46;100.00;91722.13;2073259;28;20476;-88
2021/12/04 01:53:06;;;;;;;5.10;3.90;;;;;;;-1.44;100.00;91712.78;2081047;28;20032;-87
2021/12/04 01:54:07;;;;;;;4.97;4.57;;;;;;;-1.40;100.00;91712.78;2089560;28;20017;-87
2021/12/04 01:55:08;;;;;;;5.80;4.15;;;;;;;-1.33;100.00;91715.38;2072955;28;20036;-86
2021/12/04 01:56:09;;;;;;;6.72;4.40;;;;;;;-1.34;100.00;91711.25;2073433;28;20022;-88
2021/12/04 01:57:12;;;;;;;7.55;4.60;;;;;;;-1.44;100.00;91707.53;2081286;28;20036;-87
2021/12/04 01:58:13;;;;;;;5.10;4.20;;;;;;;-1.37;100.00;91712.00;2066085;28;20030;-88
2021/12/04 01:59:15;;;;;;;5.30;4.50;;;;;;;-1.43;100.00;91706.41;2088971;28;20156;-88
2021/12/04 02:00:16;;;;;;;6.03;4.32;;;;;;;-1.33;100.00;91705.63;2081851;28;20515;-88
2021/12/04 02:01:17;;;;;;;4.82;4.43;;;;;;;-1.39;100.00;91703.78;2080904;28;20053;-87
2021/12/04 02:02:18;;;;;;;4.53;4.07;;;;;;;-1.44;100.00;91707.53;2081500;28;20025;-90
2021/12/04 02:03:19;;;;;;;6.15;4.25;;;;;;;-1.54;100.00;91700.41;2089540;28;20025;-89
2021/12/04 02:04:20;;;;;;;5.60;3.90;;;;;;;-1.51;100.00;91702.28;2089398;28;20079;-90
2021/12/04 02:05:21;;;;;;;5.55;4.20;;;;;;;-1.48;100.00;91700.78;2081297;28;20021;-88
2021/12/04 02:06:22;;;;;;;4.85;4.10;;;;;;;-1.51;100.00;91699.66;2078991;28;20096;-90
2021/12/04 02:09:22;;;;;;;5.07;4.43;;;;;;;-1.34;100.00;91690.31;2148528;27;20114;-87
2021/12/04 02:10:23;;;;;;;4.32;3.92;;;;;;;-1.33;100.00;91689.91;2121852;28;20504;-87
2021/12/04 02:11:24;;;;;;;4.78;3.97;;;;;;;-1.38;100.00;91681.69;2105104;28;20157;-89
2021/12/04 02:12:25;;;;;;;5.00;3.80;;;;;;;-1.42;100.00;91686.19;2113274;28;20028;-88
2021/12/04 02:13:27;;;;;;;4.63;4.10;;;;;;;-1.35;100.00;91694.78;2102290;28;20031;-90
2021/12/04 02:14:28;;;;;;;4.25;3.40;;;;;;;-1.18;100.00;91688.03;2102461;28;20036;-89
2021/12/04 02:15:29;;;;;;;4.88;3.83;;;;;;;-1.32;100.00;91685.41;2112966;28;20043;-89
2021/12/04 02:16:31;;;;;;;4.40;3.78;;;;;;;-1.36;100.00;91679.44;2111027;28;20083;-86
2021/12/04 02:17:34;;;;;;;5.20;3.88;;;;;;;-1.33;100.00;91691.78;2117211;27;20038;-89
2021/12/04 02:18:35;;;;;;;5.63;3.90;;;;;;;-1.31;100.00;91687.69;2116416;28;20034;-89
2021/12/04 02:19:40;;;;;;;5.32;3.80;;;;;;;-1.40;100.00;91676.84;2103290;28;20080;-88
2021/12/04 02:20:41;;;;;;;4.05;3.72;;;;;;;-1.36;100.00;91674.19;2097213;28;20024;-89
2021/12/04 02:21:45;;;;;;;4.50;3.90;;;;;;;-1.34;100.00;91675.31;2096750;28;20035;-88
2021/12/04 02:22:47;;;;;;;4.30;3.80;;;;;;;-1.29;100.00;91688.03;2105889;28;20020;-88
2021/12/04 02:23:48;;;;;;;4.32;3.60;;;;;;;-1.33;100.00;91674.19;2105300;28;20039;-86
2021/12/04 02:24:49;;;;;;;3.60;3.30;;;;;;;-1.27;100.00;91680.56;2104281;28;20115;-88
2021/12/04 02:25:50;;;;;;;3.95;3.55;;;;;;;-1.02;100.00;91671.91;2104719;28;20047;-89
2021/12/04 02:26:51;;;;;;;6.78;3.70;;;;;;;-1.03;100.00;91660.66;2108843;27;20028;-88
2021/12/04 02:27:53;;;;;;;4.00;3.50;;;;;;;-0.93;100.00;91659.13;2115420;28;20055;-89
2021/12/04 02:28:55;;;;;;;5.53;4.35;;;;;;;-0.86;100.00;91669.63;2121693;28;20027;-88
2021/12/04 02:29:56;;;;;;;4.57;3.30;;;;;;;-0.90;100.00;91663.63;2115445;28;20225;-90
2021/12/04 02:30:57;;;;;;;4.57;3.38;;;;;;;-1.00;100.00;91661.78;2104718;28;20020;-90
2021/12/04 02:31:59;;;;;;;6.20;3.80;;;;;;;-1.16;100.00;91661.44;2106526;28;20028;-88
2021/12/04 02:33:01;;;;;;;4.20;3.40;;;;;;;-1.14;100.00;91648.69;2105027;28;20138;-88
2021/12/04 02:34:04;;;;;;;3.90;3.53;;;;;;;-1.10;100.00;91649.44;2104093;28;20051;-89
2021/12/04 02:35:07;;;;;;;4.20;3.60;;;;;;;-1.11;100.00;91648.69;2112927;28;20100;-89
2021/12/04 02:36:08;;;;;;;4.63;3.47;;;;;;;-1.05;100.00;91652.44;2121615;27;20050;-89
2021/12/04 02:37:09;;;;;;;3.63;3.33;;;;;;;-0.98;100.00;91648.28;2112771;28;20063;-90
2021/12/04 02:38:10;;;;;;;4.13;3.13;;;;;;;-0.99;100.00;91649.41;2104808;28;20064;-88
2021/12/04 02:39:30;;;;;;;4.78;3.22;;;;;;;-0.91;100.00;91656.16;2113156;27;20063;-87
2021/12/04 02:40:31;;;;;;;3.40;3.08;;;;;;;-0.90;100.00;91655.00;2121608;28;20788;-89
2021/12/04 02:41:32;;;;;;;3.83;3.30;;;;;;;-0.96;100.00;91652.03;2104782;28;20085;-88
2021/12/04 02:42:33;;;;;;;3.55;3.22;;;;;;;-0.91;100.00;91650.91;2113248;28;20030;-87
2021/12/04 02:43:35;;;;;;;4.80;2.90;;;;;;;-0.77;100.00;91642.97;2121422;28;20094;-89
2021/12/04 02:44:42;;;;;;;3.40;2.63;;;;;;;-0.79;100.00;91648.63;2104845;28;20500;-91
2021/12/04 02:45:52;;;;;;;3.72;2.47;;;;;;;-0.74;100.00;91649.34;2106399;28;20024;-88
2021/12/04 02:47:00;;;;;;;2.85;2.65;;;;;;;-0.81;100.00;91650.09;2113285;27;20058;-88
2021/12/04 02:48:09;;;;;;;2.67;2.47;;;;;;;-0.80;100.00;91641.09;2106910;28;20024;-88
2021/12/04 02:49:17;;;;;;;2.63;2.42;;;;;;;-0.87;100.00;91635.91;2118180;28;20024;-88
2021/12/04 02:50:27;;;;;;;2.65;2.38;;;;;;;-0.89;100.00;91644.13;2105557;28;20051;-89
2021/12/04 02:51:35;;;;;;;2.50;2.30;;;;;;;-0.82;100.00;91646.00;2110133;28;20024;-87
2021/12/04 02:52:39;;;;;;;2.20;2.00;;;;;;;-0.87;100.00;91644.53;2101747;28;20028;-86
2021/12/04 02:53:46;;;;;;;2.53;2.30;;;;;;;-0.79;100.00;91643.38;2114035;27;20094;-87
2021/12/04 02:54:52;;;;;;;2.90;2.53;;;;;;;-0.74;100.00;91634.34;2108667;28;20520;-87
2021/12/04 02:55:58;;;;;;;2.20;1.98;;;;;;;-0.73;100.00;91629.84;2113576;28;20024;-88
2021/12/04 02:57:00;;;;;;;2.13;1.98;;;;;;;-0.70;100.00;91629.06;2104931;28;20070;-88
2021/12/04 02:58:07;;;;;;;2.70;2.50;;;;;;;-0.69;100.00;91633.97;2103420;28;20107;-87
2021/12/04 02:59:13;;;;;;;2.40;2.20;;;;;;;-0.77;100.00;91630.59;2109450;28;20031;-88
2021/12/04 03:00:21;;;;;;;2.60;2.30;;;;;;;-0.63;100.00;91626.44;2105483;28;20028;-89
2021/12/04 03:01:25;;;;;;;2.28;1.98;;;;;;;-0.60;100.00;91625.69;2098641;28;20028;-89
2021/12/04 03:02:26;;;;;;;2.42;2.22;;;;;;;-0.62;100.00;91623.41;2106967;28;20077;-88
2021/12/04 03:03:31;;;;;;;2.30;2.08;;;;;;;-0.51;100.00;91629.38;2104485;28;20044;-88
2021/12/04 03:04:36;;;;;;;2.95;2.10;;;;;;;-0.45;100.00;91627.09;2098874;28;20020;-89
2021/12/04 03:05:39;;;;;;;2.20;2.00;;;;;;;-0.54;100.00;91632.75;2092707;28;20420;-88
2021/12/04 03:06:46;;;;;;;2.25;2.00;;;;;;;-0.56;100.00;91631.66;2104805;28;20384;-88
2021/12/04 03:07:49;;;;;;;2.13;1.92;;;;;;;-0.48;100.00;91627.88;2109547;28;20442;-87
2021/12/04 03:08:52;;;;;;;1.88;1.77;;;;;;;-0.42;100.00;91630.84;2107369;28;20047;-89
2021/12/04 03:09:55;;;;;;;1.85;1.70;;;;;;;-0.40;100.00;91618.06;2112964;28;20020;-89
2021/12/04 03:10:56;;;;;;;2.10;1.90;;;;;;;-0.51;100.00;91610.25;2110655;28;20031;-88
2021/12/04 03:12:03;;;;;;;1.90;1.80;;;;;;;-0.40;100.00;91616.19;2103752;28;20020;-88
2021/12/04 03:13:08;;;;;;;1.80;1.70;;;;;;;-0.24;100.00;91618.34;2095794;28;20086;-88
2021/12/04 03:14:17;;;;;;;2.03;1.85;;;;;;;-0.45;100.00;91610.59;2096320;28;20028;-86
2021/12/04 03:15:25;;;;;;;2.13;1.80;;;;;;;-0.39;100.00;91606.47;2098285;28;20048;-90
2021/12/04 03:16:30;;;;;;;1.70;1.60;;;;;;;-0.51;100.00;91610.25;2094861;28;20056;-89
2021/12/04 03:17:34;;;;;;;1.60;1.50;;;;;;;-0.48;100.00;91604.25;2089607;28;20029;-89
2021/12/04 03:18:39;;;;;;;1.85;1.75;;;;;;;-0.56;100.00;91608.03;2096786;28;20025;-89
2021/12/04 03:19:44;;;;;;;2.45;2.05;;;;;;;-0.43;100.00;91606.47;2092961;28;20029;-87
2021/12/04 03:20:46;;;;;;;2.17;2.03;;;;;;;-0.42;100.00;91602.72;2087246;28;20021;-86
2021/12/04 03:21:51;;;;;;;2.15;1.95;;;;;;;-0.43;100.00;91595.22;2094176;28;20636;-88
2021/12/04 03:23:00;;;;;;;1.70;1.60;;;;;;;-0.42;100.00;91594.84;2091625;28;20183;-90
2021/12/04 03:25:04;;;;;;;1.63;1.52;;;;;;;-0.42;100.00;91591.47;2100514;28;20394;-87
2021/12/04 03:26:09;;;;;;;1.60;1.50;;;;;;;-0.51;100.00;91584.03;2095760;28;20471;-87
2021/12/04 03:27:11;;;;;;;1.83;1.73;;;;;;;-0.37;100.00;91589.19;2098654;28;20028;-88
2021/12/04 03:28:15;;;;;;;1.92;1.60;;;;;;;-0.46;100.00;91593.38;2090774;28;20079;-88
2021/12/04 03:29:20;;;;;;;2.60;1.85;;;;;;;-0.48;100.00;91583.25;2091102;28;20478;-87
2021/12/04 03:30:47;;;;;;;2.17;1.50;;;;;;;-0.44;100.00;91585.84;2091264;28;20502;-88
2021/12/04 03:41:02;;;;;;;1.15;1.05;;;;;;;-0.11;100.00;91569.50;2122016;27;20111;-88
2021/12/04 03:42:04;;;;;;;0.90;0.90;;;;;;;-0.10;100.00;91565.00;2105331;28;20027;-88
2021/12/04 03:43:10;;;;;;;1.10;1.00;;;;;;;-0.23;100.00;91567.34;2098692;28;20021;-88
2021/12/04 03:44:11;;;;;;;0.90;0.90;;;;;;;-0.31;100.00;91566.66;2091848;28;20056;-88
2021/12/04 03:45:12;;;;;;;1.10;1.00;;;;;;;-0.42;100.00;91560.72;2090297;28;20386;-89
2021/12/04 03:46:15;;;;;;;1.17;1.08;;;;;;;-0.51;100.00;91555.91;2098434;28;20108;-89
2021/12/04 03:47:17;;;;;;;1.52;1.00;;;;;;;-0.41;100.00;91550.97;2098029;28;20035;-88
2021/12/04 03:49:34;;;;;;;1.00;1.00;;;;;;;-0.32;100.00;91546.03;2094382;28;20391;-88
2021/12/04 03:50:35;;;;;;;1.10;1.00;;;;;;;-0.27;100.00;91548.97;2098523;28;20055;-88
2021/12/04 03:51:36;;;;;;;0.88;0.88;;;;;;;-0.33;100.00;91542.66;2093612;28;20031;-88
2021/12/04 03:52:37;;;;;;;1.15;1.05;;;;;;;-0.09;100.00;91538.38;2089856;28;20028;-89
2021/12/04 03:53:38;;;;;;;1.42;1.10;;;;;;;-0.15;100.00;91534.66;2085653;28;20617;-89
2021/12/04 03:54:40;;;;;;;1.13;1.00;;;;;;;-0.22;100.00;91536.56;2098398;28;20056;-88
2021/12/04 03:55:43;;;;;;;1.00;1.00;;;;;;;-0.24;100.00;91536.97;2098547;28;20025;-88
2021/12/04 03:57:12;;;;;;;1.05;1.00;;;;;;;-0.20;100.00;91531.69;2099135;28;20028;-89
2021/12/04 03:58:14;;;;;;;0.93;0.93;;;;;;;-0.29;100.00;91537.38;2102565;28;20020;-88
2021/12/04 03:59:16;;;;;;;0.90;0.90;;;;;;;-0.20;100.00;91531.69;2106654;28;20384;-87
2021/12/04 04:00:18;;;;;;;0.80;0.80;;;;;;;-0.21;100.00;91538.09;2097305;28;20107;-89
2021/12/04 04:01:19;;;;;;;1.00;0.90;;;;;;;-0.17;100.00;91531.69;2103509;28;20111;-87
2021/12/04 04:02:20;;;;;;;0.80;0.80;;;;;;;-0.11;100.00;91534.63;2090124;28;20078;-87
2021/12/04 04:03:21;;;;;;;0.88;0.88;;;;;;;-0.20;100.00;91539.56;2094241;28;20453;-88
2021/12/04 04:04:22;;;;;;;0.80;0.80;;;;;;;-0.13;100.00;91523.75;2090369;28;20021;-86
2021/12/04 04:05:24;;;;;;;0.70;0.70;;;;;;;-0.29;100.00;91524.25;2098586;28;20393;-89
2021/12/04 04:06:28;;;;;;;0.70;0.70;;;;;;;-0.18;100.00;91527.53;2098277;28;20054;-89
2021/12/04 04:07:29;;;;;;;0.77;0.77;;;;;;;-0.16;100.00;91527.16;2084861;28;20097;-89
2021/12/04 04:08:31;;;;;;;0.90;0.90;;;;;;;-0.26;100.00;91523.50;2089889;28;20036;-88
2021/12/04 04:09:32;;;;;;;0.90;0.73;;;;;;;-0.12;100.00;91523.38;2098712;28;20077;-91
2021/12/04 04:10:33;;;;;;;0.80;0.80;;;;;;;-0.21;100.00;91524.97;2087543;28;20510;-88
2021/12/04 04:11:36;;;;;;;1.30;0.70;;;;;;;-0.12;100.00;91520.75;2084880;28;20028;-88
2021/12/04 04:12:37;;;;;;;0.70;0.70;;;;;;;-0.03;100.00;91523.69;2090649;28;20024;-89
2021/12/04 04:13:42;;;;;;;0.65;0.65;;;;;;;0.03;100.00;91528.50;2098589;28;20100;-89
2021/12/04 04:14:42;;;;;;;0.85;0.80;;;;;;;0.02;100.00;91521.78;2106598;28;20381;-89
2021/12/04 04:15:45;;;;;;;0.60;0.60;;;;;;;0.01;100.00;91530.78;2089974;28;20049;-90
2021/12/04 04:16:47;;;;;;;1.13;0.80;;;;;;;0.07;100.00;91527.34;2098374;28;20382;-90
2021/12/04 04:18:05;;;;;;;1.00;0.88;;;;;;;0.02;100.00;91517.25;2098091;28;20024;-88
2021/12/04 04:19:08;;;;;;;0.80;0.80;;;;;;;-0.07;100.00;91515.09;2093761;28;20021;-89
2021/12/04 04:20:14;;;;;;;0.73;0.73;;;;;;;-0.16;100.00;91525.28;2083131;28;20025;-89
2021/12/04 04:21:16;;;;;;;0.60;0.60;;;;;;;-0.12;100.00;91522.63;2095926;28;20089;-88
2021/12/04 04:22:18;;;;;;;0.65;0.65;;;;;;;-0.21;100.00;91525.69;2106361;28;20027;-88
2021/12/04 04:23:19;;;;;;;0.77;0.77;;;;;;;-0.17;100.00;91517.81;2106702;28;20030;-89
2021/12/04 04:24:25;;;;;;;0.60;0.60;;;;;;;-0.19;100.00;91512.94;2098639;28;20028;-89
2021/12/04 04:25:26;;;;;;;0.50;0.50;;;;;;;-0.03;100.00;91515.81;2099144;28;20025;-89
2021/12/04 04:26:27;;;;;;;0.70;0.65;;;;;;;-0.11;100.00;91511.75;2098694;28;20036;-88
2021/12/04 04:27:28;;;;;;;0.85;0.60;;;;;;;-0.10;100.00;91509.84;2097982;28;20052;-90
2021/12/04 04:28:29;;;;;;;1.02;0.98;;;;;;;0.14;100.00;91502.91;2086112;28;20029;-89
2021/12/04 04:29:30;;;;;;;1.55;0.50;;;;;;;0.01;100.00;91504.53;2104436;28;20504;-88
2021/12/04 04:30:32;;;;;;;0.55;0.52;;;;;;;-0.05;100.00;91497.03;2098562;28;20456;-89
2021/12/04 04:31:48;;;;;;;0.50;0.50;;;;;;;0.14;100.00;91501.03;2097336;28;20096;-88
2021/12/04 04:32:50;;;;;;;0.50;0.50;;;;;;;0.06;100.00;91501.47;2091037;28;20033;-89
2021/12/04 04:33:57;;;;;;;0.40;0.40;;;;;;;0.06;100.00;91491.72;2087287;28;20051;-88
2021/12/04 04:35:07;;;;;;;1.55;0.60;;;;;;;0.08;100.00;91499.94;2090073;28;20024;-89
2021/12/04 04:38:01;;;;;;;3.63;3.33;;;;;;;0.08;100.00;91486.06;2080188;28;19920;-88
2021/12/04 04:39:44;;;;;;;0.70;0.70;;;;;;;0.05;100.00;91492.13;2108633;28;20045;-89
2021/12/04 04:59:13;;;;;;;0.40;0.40;;;;;;;0.10;100.00;91462.78;2107362;28;20020;-90
2021/12/04 05:11:04;;;;;;;;;;;;;;;0.08;100.00;91452.66;2104373;28;20491;-89
2021/12/04 05:13:18;;;;;;;0.60;0.60;;;;;;;0.09;100.00;91459.44;2089928;28;20021;-90
2021/12/04 05:14:23;;;;;;;0.55;0.55;;;;;;;0.12;100.00;91461.25;2091286;28;20047;-90
2021/12/04 05:21:20;;;;;;;1.02;0.50;;;;;;;-0.01;100.00;91455.75;2090339;28;20482;-88
2021/12/04 05:22:15;;;;;;;0.47;0.47;;;;;;;0.15;100.00;91459.72;2108122;28;20042;-90
2021/12/04 05:23:16;;;;;;;0.50;0.50;;;;;;;0.01;100.00;91459.88;2089915;28;20027;-89
2021/12/04 05:24:17;;;;;;;0.38;0.38;;;;;;;0.01;100.00;91452.75;2089616;28;20032;-89
2021/12/04 05:25:18;;;;;;;0.60;0.60;;;;;;;-0.10;100.00;91455.44;2097401;28;20051;-89
2021/12/04 05:26:25;;;;;;;0.40;0.40;;;;;;;-0.02;100.00;91450.88;2081460;28;20083;-89
2021/12/04 05:27:27;;;;;;;0.40;0.40;;;;;;;-0.06;100.00;91455.44;2076558;28;20025;-88
2021/12/04 05:28:29;;;;;;;0.30;0.30;;;;;;;-0.11;100.00;91453.22;2089739;28;20050;-89
2021/12/04 05:29:33;;;;;;;0.50;0.50;;;;;;;-0.05;100.00;91441.16;2089853;28;20107;-89
2021/12/04 05:30:34;;;;;;;0.45;0.45;;;;;;;0.24;100.00;91446.88;2079541;28;20022;-89
2021/12/04 05:31:44;;;;;;;2.10;0.50;;;;;;;0.38;100.00;91440.72;2084303;28;20417;-88
2021/12/04 05:32:45;;;;;;;0.68;0.50;;;;;;;0.11;100.00;91443.25;2097678;28;20024;-88
2021/12/04 05:33:47;;;;;;;0.35;0.35;;;;;;;0.21;100.00;91437.16;2085881;28;20060;-89
2021/12/04 05:34:49;;;;;;;0.30;0.30;;;;;;;0.29;100.00;91445.72;2085256;28;20025;-89
2021/12/04 05:35:50;;;;;;;0.40;0.40;;;;;;;0.28;100.00;91442.34;2094501;28;20031;-90
2021/12/04 05:36:51;;;;;;;0.30;0.30;;;;;;;0.28;100.00;91429.19;2076565;28;20073;-90
2021/12/04 05:37:53;;;;;;;0.40;0.40;;;;;;;0.12;100.00;91436.88;2078209;28;20074;-90
2021/12/04 05:38:54;;;;;;;0.60;0.50;;;;;;;0.15;100.00;91433.47;2081983;28;20199;-91
2021/12/04 05:39:55;;;;;;;0.40;0.40;;;;;;;0.13;100.00;91425.22;2089722;28;20048;-90
2021/12/04 05:40:56;;;;;;;0.45;0.45;;;;;;;0.22;100.00;91423.63;2103843;28;20107;-90
2021/12/04 05:42:03;;;;;;;0.40;0.40;;;;;;;0.09;100.00;91425.28;2097903;28;20071;-90
2021/12/04 05:43:10;;;;;;;0.40;0.40;;;;;;;0.12;100.00;91421.09;2083231;28;20014;-90
2021/12/04 05:44:18;;;;;;;0.40;0.40;;;;;;;0.18;100.00;91422.19;2089642;28;20497;-90
2021/12/04 05:45:23;;;;;;;0.50;0.50;;;;;;;0.33;100.00;91417.50;2098938;28;20508;-89
2021/12/04 05:46:27;;;;;;;0.30;0.30;;;;;;;0.14;100.00;91419.59;2090406;28;20088;-89
2021/12/04 05:47:35;;;;;;;0.63;0.40;;;;;;;0.08;100.00;91417.78;2082395;28;20029;-88
2021/12/04 05:55:09;;;;;;;;;;;;;;;0.33;100.00;91420.13;2085669;28;20409;-89
2021/12/04 05:56:10;;;;;;;0.65;0.60;;;;;;;0.39;100.00;91419.28;2091351;28;19908;-87
2021/12/04 05:57:12;;;;;;;0.50;0.50;;;;;;;0.25;100.00;91414.94;2080915;28;20517;-88
2021/12/04 05:58:13;;;;;;;0.40;0.40;;;;;;;0.15;100.00;91417.69;2089541;28;20033;-88
2021/12/04 05:59:14;;;;;;;0.63;0.50;;;;;;;0.13;100.00;91423.34;2097664;28;20035;-89
2021/12/04 06:00:22;;;;;;;0.38;0.38;;;;;;;0.25;100.00;91425.47;2097630;28;20031;-87
2021/12/04 06:01:24;;;;;;;1.83;0.35;;;;;;;0.28;100.00;91425.81;2097696;28;20020;-88
2021/12/04 06:02:25;;;;;;;0.40;0.40;;;;;;;0.20;100.00;91425.16;2090851;28;20029;-90
2021/12/04 06:03:27;;;;;;;0.32;0.32;;;;;;;0.32;100.00;91427.28;2097552;28;20028;-89
2021/12/04 06:04:28;;;;;;;0.32;0.32;;;;;;;0.32;100.00;91429.91;2097574;28;20025;-89
2021/12/04 06:05:29;;;;;;;0.40;0.40;;;;;;;0.36;100.00;91425.34;2089386;28;20032;-88
2021/12/04 06:06:30;;;;;;;0.30;0.30;;;;;;;0.37;100.00;91418.22;2089458;28;20033;-88
2021/12/04 06:07:31;;;;;;;0.30;0.30;;;;;;;0.42;100.00;91420.41;2089190;28;20480;-88
2021/12/04 06:08:32;;;;;;;0.30;0.30;;;;;;;0.33;100.00;91422.75;2082062;28;20489;-88
2021/12/04 06:09:33;;;;;;;0.30;0.30;;;;;;;0.32;100.00;91426.53;2097650;28;20489;-87
2021/12/04 06:10:34;;;;;;;0.77;0.50;;;;;;;0.32;100.00;91423.91;2097537;28;21762;-88
2021/12/04 06:11:36;;;;;;;1.02;0.30;;;;;;;0.36;100.00;91424.63;2089368;28;20583;-88
2021/12/04 06:12:38;;;;;;;0.40;0.40;;;;;;;0.43;100.00;91424.50;2081002;28;20029;-88